Time;durP1;ratioP1;P1;durP2;ratioP2;P2;SDS_P1;SDS_P2;PMS_P1;PMS_P2;Temp;Humidity;BMP_temperature;BMP_pressure;BME280_temperature;BME280_humidity;BME280_pressure;Samples;Min_cycle;Max_cycle;Signal;HPM_P1;HPM_P2
2022/04/21 00:00:14;;;;;;;8.25;4.50;;;11.30;99.90;;;;;;5093092;28;20055;-31
2022/04/21 00:02:41;;;;;;;6.28;4.30;;;11.30;99.90;;;;;;5089451;28;20123;-29
2022/04/21 00:05:08;;;;;;;7.18;4.32;;;11.20;99.90;;;;;;5090583;28;20024;-29
2022/04/21 00:07:33;;;;;;;6.77;4.27;;;11.30;99.90;;;;;;5093081;28;20414;-29
2022/04/21 00:09:59;;;;;;;7.57;4.20;;;11.30;99.90;;;;;;5095273;28;20032;-29
2022/04/21 00:12:25;;;;;;;8.05;4.60;;;11.20;99.90;;;;;;5093155;28;20030;-29
2022/04/21 00:14:51;;;;;;;14.05;4.50;;;11.20;99.90;;;;;;5094057;28;20024;-28
2022/04/21 00:17:16;;;;;;;7.53;4.80;;;11.20;99.90;;;;;;5095654;28;20028;-30
2022/04/21 00:19:42;;;;;;;8.30;4.05;;;11.10;99.90;;;;;;5077844;28;20028;-30
2022/04/21 00:24:52;;;;;;;5.93;4.18;;;11.10;99.90;;;;;;5092420;28;20463;-30
2022/04/21 00:27:18;;;;;;;7.93;4.70;;;11.10;99.90;;;;;;5096183;28;20055;-32
2022/04/21 00:29:46;;;;;;;6.72;3.75;;;11.10;99.90;;;;;;5095575;28;20031;-33
2022/04/21 00:32:13;;;;;;;15.63;4.35;;;11.10;99.90;;;;;;5092257;28;20061;-30
2022/04/21 00:34:38;;;;;;;5.68;4.20;;;11.10;99.90;;;;;;5094376;28;20517;-31
2022/04/21 00:37:04;;;;;;;5.47;4.40;;;11.10;99.90;;;;;;5094245;28;20103;-31
2022/04/21 00:39:31;;;;;;;10.60;5.03;;;11.00;99.90;;;;;;5095392;28;20476;-29
2022/04/21 00:42:03;;;;;;;6.35;4.22;;;11.00;99.90;;;;;;5094931;28;20029;-35
2022/04/21 00:44:29;;;;;;;7.88;4.70;;;10.90;99.90;;;;;;5093517;28;20032;-34
2022/04/21 00:46:59;;;;;;;10.05;4.85;;;10.90;99.90;;;;;;5092673;28;20075;-29
2022/04/21 00:49:27;;;;;;;13.00;4.45;;;10.90;99.90;;;;;;5092882;28;20456;-33
2022/04/21 00:51:54;;;;;;;10.40;4.45;;;10.80;99.90;;;;;;5095611;28;20380;-30
2022/04/21 00:54:19;;;;;;;6.43;4.20;;;10.80;99.90;;;;;;5092536;28;20120;-29
2022/04/21 00:56:45;;;;;;;8.20;4.00;;;10.80;99.90;;;;;;5081307;28;20063;-29
2022/04/21 00:59:12;;;;;;;13.90;5.05;;;10.80;99.90;;;;;;5093839;28;20047;-36
2022/04/21 01:04:25;;;;;;;;;;;10.70;99.90;;;;;;5095577;28;20519;-29
2022/04/21 01:06:55;;;;;;;6.40;4.15;;;10.70;99.90;;;;;;5093087;28;19969;-33
2022/04/21 01:09:21;;;;;;;8.35;4.00;;;10.60;99.90;;;;;;5092942;28;20076;-28
2022/04/21 01:11:50;;;;;;;8.73;4.63;;;10.70;99.90;;;;;;5092630;28;20020;-34
2022/04/21 01:14:16;;;;;;;8.35;4.40;;;10.60;99.90;;;;;;5093024;28;20032;-28
2022/04/21 01:16:42;;;;;;;9.68;4.53;;;10.60;99.90;;;;;;5094378;28;20158;-29
2022/04/21 01:19:08;;;;;;;6.65;4.78;;;10.60;99.90;;;;;;5091646;28;20107;-34
2022/04/21 01:21:34;;;;;;;8.68;5.25;;;10.60;99.90;;;;;;5091275;28;20030;-30
2022/04/21 01:23:59;;;;;;;7.20;4.38;;;10.60;99.90;;;;;;5093557;28;20024;-29
2022/04/21 01:26:28;;;;;;;6.47;4.60;;;10.50;99.90;;;;;;5091637;28;20032;-30
2022/04/21 01:28:55;;;;;;;11.48;4.40;;;10.50;99.90;;;;;;5091894;28;20028;-30
2022/04/21 01:31:23;;;;;;;7.20;4.63;;;10.40;99.90;;;;;;5092615;28;20028;-28
2022/04/21 01:33:50;;;;;;;7.28;4.50;;;10.40;99.90;;;;;;5094304;28;20062;-35
2022/04/21 01:36:16;;;;;;;9.00;4.30;;;10.40;99.90;;;;;;5093536;28;20028;-36
2022/04/21 01:41:25;;;;;;;10.38;4.88;;;10.40;99.90;;;;;;5075661;28;20430;-30
2022/04/21 01:43:51;;;;;;;8.73;5.20;;;10.40;99.90;;;;;;5091129;28;20028;-28
2022/04/21 01:46:17;;;;;;;6.32;4.53;;;10.40;99.90;;;;;;5092768;28;20073;-32
2022/04/21 01:48:42;;;;;;;5.68;4.22;;;10.40;99.90;;;;;;5093599;28;20024;-28
2022/04/21 01:51:08;;;;;;;7.15;4.85;;;10.30;99.90;;;;;;5089553;28;20506;-29
2022/04/21 01:53:34;;;;;;;9.40;4.43;;;10.30;99.90;;;;;;5092149;28;20676;-29
2022/04/21 01:56:00;;;;;;;8.00;4.53;;;10.30;99.90;;;;;;5094798;28;20084;-29
2022/04/21 01:58:26;;;;;;;7.10;4.00;;;10.30;99.90;;;;;;5092648;28;20031;-30
2022/04/21 02:00:52;;;;;;;6.25;4.22;;;10.30;99.90;;;;;;5090447;28;20016;-29
2022/04/21 02:03:18;;;;;;;6.70;3.92;;;10.20;99.90;;;;;;5093054;28;20388;-30
2022/04/21 02:05:43;;;;;;;7.70;4.53;;;10.20;99.90;;;;;;5091797;28;20047;-28
2022/04/21 02:08:09;;;;;;;10.23;4.85;;;10.20;99.90;;;;;;5092455;28;20024;-29
2022/04/21 02:10:35;;;;;;;7.93;4.20;;;10.20;99.90;;;;;;5093591;28;20077;-29
2022/04/21 02:13:00;;;;;;;8.88;5.30;;;10.20;99.90;;;;;;5092631;28;20012;-31
2022/04/21 02:15:26;;;;;;;10.95;4.85;;;10.20;99.90;;;;;;5093516;28;20020;-28
2022/04/21 02:17:52;;;;;;;8.70;5.43;;;10.20;99.90;;;;;;5088895;28;20115;-29
2022/04/21 02:20:17;;;;;;;9.38;5.05;;;10.10;99.90;;;;;;5091968;28;20031;-29
2022/04/21 02:22:44;;;;;;;11.05;4.25;;;10.00;99.90;;;;;;5091865;28;20483;-28
2022/04/21 02:25:12;;;;;;;7.32;3.90;;;10.10;99.90;;;;;;5093312;28;20028;-33
2022/04/21 02:27:39;;;;;;;6.18;4.53;;;10.00;99.90;;;;;;5090743;28;20028;-33
2022/04/21 02:30:08;;;;;;;7.97;4.47;;;10.00;99.90;;;;;;5090308;28;20032;-28
2022/04/21 02:32:35;;;;;;;6.97;4.20;;;9.90;99.90;;;;;;5091270;28;20040;-29
2022/04/21 02:35:01;;;;;;;9.20;4.35;;;9.90;99.90;;;;;;5093762;28;20024;-31
2022/04/21 02:37:27;;;;;;;10.30;4.35;;;9.80;99.90;;;;;;5092577;28;20016;-28
2022/04/21 02:39:52;;;;;;;6.97;4.07;;;9.80;99.90;;;;;;5089639;28;20024;-29
2022/04/21 02:42:20;;;;;;;7.53;4.63;;;9.80;99.90;;;;;;5083626;28;20357;-30
2022/04/21 02:44:46;;;;;;;8.43;4.35;;;9.90;99.90;;;;;;5093943;28;20032;-28
2022/04/21 02:47:12;;;;;;;5.80;4.22;;;9.90;99.90;;;;;;5089878;28;20033;-28
2022/04/21 02:49:38;;;;;;;7.00;4.13;;;9.90;99.90;;;;;;5093320;28;20028;-29
2022/04/21 02:52:09;;;;;;;7.10;4.20;;;9.90;99.90;;;;;;5092900;28;20077;-35
2022/04/21 02:57:20;;;;;;;7.22;4.10;;;9.80;99.90;;;;;;5092381;28;20089;-28
2022/04/21 02:59:53;;;;;;;7.00;4.20;;;9.80;99.90;;;;;;5091542;28;20024;-28
2022/04/21 03:02:20;;;;;;;10.27;4.45;;;9.70;99.90;;;;;;5092890;28;20528;-31
2022/04/21 03:04:46;;;;;;;5.20;3.70;;;9.70;99.90;;;;;;5091650;28;20024;-29
2022/04/21 03:07:13;;;;;;;6.43;4.03;;;9.70;99.90;;;;;;5091918;28;20370;-42
2022/04/21 03:09:39;;;;;;;4.72;3.90;;;9.70;99.90;;;;;;5093015;28;20024;-35
2022/04/21 03:12:06;;;;;;;10.10;4.55;;;9.70;99.90;;;;;;5093301;28;20028;-28
2022/04/21 03:14:35;;;;;;;9.32;4.82;;;9.70;99.90;;;;;;5092609;28;20073;-32
2022/04/21 03:17:00;;;;;;;7.47;3.80;;;9.60;99.90;;;;;;5092380;28;20026;-29
2022/04/21 03:19:26;;;;;;;5.88;4.13;;;9.60;99.90;;;;;;5092957;28;20387;-29
2022/04/21 03:24:37;;;;;;;7.25;3.78;;;9.60;99.90;;;;;;5092758;28;20047;-31
2022/04/21 03:27:03;;;;;;;6.20;3.97;;;9.50;99.90;;;;;;5089378;28;20031;-31
2022/04/21 03:29:29;;;;;;;8.00;4.00;;;9.60;99.90;;;;;;5091972;28;20032;-30
2022/04/21 03:32:13;;;;;;;8.00;4.60;;;9.50;99.90;;;;;;5092965;28;20527;-29
2022/04/21 03:34:43;;;;;;;5.93;3.78;;;9.60;99.90;;;;;;5090752;28;20043;-30
2022/04/21 03:37:13;;;;;;;8.10;4.18;;;9.50;99.90;;;;;;5084223;28;20035;-28
2022/04/21 03:39:40;;;;;;;6.15;3.65;;;9.50;99.90;;;;;;5091679;28;20070;-30
2022/04/21 03:42:07;;;;;;;6.95;4.30;;;9.50;99.90;;;;;;5093616;28;20047;-29
2022/04/21 03:44:34;;;;;;;8.73;4.45;;;9.40;99.90;;;;;;5095461;28;20493;-31
2022/04/21 03:47:00;;;;;;;8.98;4.57;;;9.40;99.90;;;;;;5094871;28;20487;-28
2022/04/21 03:49:27;;;;;;;7.55;3.97;;;9.40;99.90;;;;;;5097009;28;20028;-29
2022/04/21 03:51:52;;;;;;;5.80;3.50;;;9.30;99.90;;;;;;5094332;28;20020;-28
2022/04/21 03:54:18;;;;;;;6.60;3.90;;;9.30;99.90;;;;;;5096332;28;20115;-29
2022/04/21 03:56:43;;;;;;;11.35;4.85;;;9.20;99.90;;;;;;5094639;28;20025;-29
2022/04/21 03:59:09;;;;;;;11.15;4.45;;;9.30;99.90;;;;;;5091051;28;20023;-28
2022/04/21 04:01:35;;;;;;;5.78;3.67;;;9.30;99.90;;;;;;5089292;28;20024;-31
2022/04/21 04:04:00;;;;;;;9.43;4.43;;;9.30;99.90;;;;;;5094126;28;20484;-29
2022/04/21 04:11:54;;;;;;;7.72;4.88;;;9.20;99.90;;;;;;5094938;28;20081;-30
2022/04/21 04:14:21;;;;;;;8.43;4.55;;;9.20;99.90;;;;;;5095791;28;20032;-29
2022/04/21 04:16:47;;;;;;;4.60;3.80;;;9.10;99.90;;;;;;5096492;28;20016;-31
2022/04/21 04:19:13;;;;;;;9.05;3.80;;;9.10;99.90;;;;;;5095758;28;20020;-29
2022/04/21 04:21:39;;;;;;;9.10;4.68;;;9.00;99.90;;;;;;5096326;28;20023;-30
2022/04/21 04:24:05;;;;;;;7.78;4.22;;;9.10;99.90;;;;;;5095029;28;20040;-29
2022/04/21 04:26:32;;;;;;;8.98;4.55;;;9.10;99.90;;;;;;5096278;28;20020;-29
2022/04/21 04:28:58;;;;;;;7.67;4.53;;;9.00;99.90;;;;;;5094837;28;20035;-30
2022/04/21 04:31:24;;;;;;;9.07;4.53;;;9.00;99.90;;;;;;5094983;28;20290;-28
2022/04/21 04:33:50;;;;;;;13.82;4.10;;;9.00;99.90;;;;;;5095282;28;20510;-32
2022/04/21 04:36:16;;;;;;;6.72;3.83;;;9.00;99.90;;;;;;5093263;28;20031;-29
2022/04/21 04:38:43;;;;;;;9.80;4.15;;;9.00;99.90;;;;;;5095632;28;20026;-29
2022/04/21 04:43:53;;;;;;;7.78;4.85;;;9.00;99.90;;;;;;5093827;28;20043;-28
2022/04/21 04:49:04;;;;;;;10.25;4.68;;;9.00;99.90;;;;;;5096074;28;20035;-29
2022/04/21 04:51:34;;;;;;;6.15;3.95;;;9.00;99.90;;;;;;5095101;28;20024;-28
2022/04/21 04:54:00;;;;;;;8.95;4.43;;;9.00;99.90;;;;;;5090341;28;20492;-30
2022/04/21 04:56:28;;;;;;;13.27;4.80;;;9.00;99.90;;;;;;5094434;28;20099;-30
2022/04/21 04:58:55;;;;;;;6.60;4.25;;;9.10;99.90;;;;;;5095712;28;20533;-31
2022/04/21 05:01:42;;;;;;;6.45;3.80;;;9.10;99.90;;;;;;5095671;28;20465;-30
2022/04/21 05:04:09;;;;;;;6.93;4.20;;;9.20;99.90;;;;;;5092758;28;20028;-29
2022/04/21 05:06:39;;;;;;;8.02;4.50;;;9.20;99.90;;;;;;5095378;28;20051;-29
2022/04/21 05:09:06;;;;;;;8.30;4.43;;;9.20;99.90;;;;;;5094158;28;20036;-31
2022/04/21 05:11:33;;;;;;;7.82;4.68;;;9.20;99.90;;;;;;5095414;28;20028;-31
2022/04/21 05:14:00;;;;;;;8.45;4.30;;;9.20;99.90;;;;;;5094393;28;20028;-32
2022/04/21 05:16:26;;;;;;;8.75;4.68;;;9.20;99.90;;;;;;5093997;28;20452;-30
2022/04/21 05:18:52;;;;;;;8.57;5.07;;;9.20;99.90;;;;;;5108737;28;20353;-29
2022/04/21 05:21:18;;;;;;;9.38;4.15;;;9.20;99.90;;;;;;5096581;28;20027;-30
2022/04/21 05:23:47;;;;;;;9.32;4.40;;;9.20;99.90;;;;;;5093137;28;20085;-29
2022/04/21 05:26:16;;;;;;;10.93;4.03;;;9.30;99.90;;;;;;5093768;28;20028;-32
2022/04/21 05:28:45;;;;;;;9.40;4.47;;;9.30;99.90;;;;;;5095128;28;20024;-32
2022/04/21 05:31:11;;;;;;;5.07;3.70;;;9.40;99.90;;;;;;5095077;28;20024;-31
2022/04/21 05:33:38;;;;;;;7.07;4.03;;;9.40;99.90;;;;;;5094024;28;20475;-30
2022/04/21 05:36:04;;;;;;;10.68;3.85;;;9.50;99.90;;;;;;5093318;28;20487;-31
2022/04/21 05:38:30;;;;;;;6.35;4.13;;;9.40;99.90;;;;;;5094163;28;20023;-29
2022/04/21 05:40:57;;;;;;;9.63;4.95;;;9.40;99.90;;;;;;5094790;28;20103;-30
2022/04/21 05:43:30;;;;;;;14.60;4.10;;;9.40;99.90;;;;;;5093226;28;20027;-30
2022/04/21 05:45:56;;;;;;;5.32;4.63;;;9.50;99.90;;;;;;5095033;28;20480;-32
2022/04/21 05:48:22;;;;;;;5.95;3.95;;;9.50;99.90;;;;;;5089577;28;20559;-29
2022/04/21 05:50:51;;;;;;;8.68;4.15;;;9.60;99.90;;;;;;5094613;28;20040;-32
2022/04/21 05:53:21;;;;;;;7.78;3.65;;;9.50;99.90;;;;;;5092596;28;20482;-31
2022/04/21 05:55:48;;;;;;;5.35;3.50;;;9.60;99.90;;;;;;5094589;28;20023;-31
2022/04/21 05:58:13;;;;;;;7.43;3.78;;;9.80;99.90;;;;;;5093549;28;20028;-29
2022/04/21 06:00:39;;;;;;;7.22;3.58;;;9.90;99.90;;;;;;5094612;28;20020;-32
2022/04/21 06:03:05;;;;;;;7.00;4.35;;;10.00;99.90;;;;;;5093525;28;20039;-32
2022/04/21 06:05:32;;;;;;;6.55;3.95;;;10.10;99.90;;;;;;5093625;28;20423;-29
2022/04/21 06:07:57;;;;;;;4.80;3.70;;;10.20;99.90;;;;;;5092587;28;20081;-30
2022/04/21 06:10:23;;;;;;;5.97;3.75;;;10.30;99.90;;;;;;5093277;28;20020;-29
2022/04/21 06:12:49;;;;;;;5.93;3.70;;;10.40;99.90;;;;;;5092147;28;20024;-29
2022/04/21 06:15:15;;;;;;;9.10;3.72;;;10.50;99.90;;;;;;5094676;28;20480;-32
2022/04/21 06:17:42;;;;;;;5.40;3.25;;;10.60;99.90;;;;;;5092933;28;20024;-29
2022/04/21 06:20:09;;;;;;;4.53;3.33;;;10.70;99.90;;;;;;5088594;28;20507;-32
2022/04/21 06:22:35;;;;;;;6.20;3.90;;;10.80;99.90;;;;;;5093223;28;20488;-29
2022/04/21 06:25:00;;;;;;;6.97;4.35;;;10.90;99.90;;;;;;5094179;28;20024;-34
2022/04/21 06:27:26;;;;;;;4.65;3.40;;;11.00;99.90;;;;;;5093587;28;20070;-30
2022/04/21 06:29:52;;;;;;;5.18;3.55;;;11.10;99.90;;;;;;5089428;28;20024;-35
2022/04/21 06:32:17;;;;;;;7.05;3.78;;;11.20;99.90;;;;;;5085697;28;20042;-33
2022/04/21 06:34:43;;;;;;;4.03;3.40;;;11.30;99.90;;;;;;5090620;28;20036;-30
2022/04/21 06:37:09;;;;;;;5.03;3.40;;;11.50;99.90;;;;;;5095212;28;20070;-29
2022/04/21 06:39:34;;;;;;;6.88;3.85;;;11.70;99.90;;;;;;5092998;28;20440;-32
2022/04/21 06:42:00;;;;;;;3.50;2.83;;;11.80;99.90;;;;;;5089244;28;20518;-30
2022/04/21 06:49:53;;;;;;;6.32;3.83;;;12.00;99.90;;;;;;5091561;28;20058;-29
2022/04/21 06:52:19;;;;;;;8.98;3.78;;;12.10;99.90;;;;;;5098962;28;20445;-30
2022/04/21 06:54:45;;;;;;;7.88;3.72;;;12.20;99.90;;;;;;5095610;28;20032;-30
2022/04/21 06:57:10;;;;;;;5.82;3.20;;;12.20;99.90;;;;;;5095112;28;20062;-33
2022/04/21 06:59:37;;;;;;;5.90;2.78;;;12.40;99.90;;;;;;5101339;28;20032;-29
2022/04/21 07:02:04;;;;;;;5.65;3.45;;;12.50;99.90;;;;;;5110872;28;20387;-34
2022/04/21 07:04:30;;;;;;;7.30;3.30;;;12.50;99.90;;;;;;5102110;28;20016;-37
2022/04/21 07:06:58;;;;;;;4.90;2.80;;;12.80;99.90;;;;;;5095126;28;20078;-29
2022/04/21 07:09:24;;;;;;;7.63;3.10;;;12.90;99.90;;;;;;5091920;28;20093;-32
2022/04/21 07:11:49;;;;;;;6.18;3.10;;;13.00;99.90;;;;;;5104460;28;20027;-30
2022/04/21 07:14:15;;;;;;;4.28;3.10;;;13.10;99.90;;;;;;5098553;28;20776;-31
2022/04/21 07:16:40;;;;;;;3.90;2.88;;;13.20;99.90;;;;;;5086662;28;20369;-29
2022/04/21 07:19:06;;;;;;;8.95;3.70;;;13.20;99.90;;;;;;5088969;28;20042;-29
2022/04/21 07:21:32;;;;;;;4.50;3.38;;;13.30;99.90;;;;;;5098294;28;20032;-32
2022/04/21 07:23:57;;;;;;;5.47;3.13;;;13.40;99.90;;;;;;5105538;28;20038;-30
2022/04/21 07:26:23;;;;;;;4.95;3.60;;;13.60;99.90;;;;;;5094215;28;20118;-30
2022/04/21 07:28:48;;;;;;;6.43;3.80;;;13.70;99.90;;;;;;5098634;28;20016;-28
2022/04/21 07:31:14;;;;;;;3.40;2.88;;;13.60;99.90;;;;;;5097724;28;20059;-28
2022/04/21 07:33:40;;;;;;;3.78;2.55;;;13.60;99.90;;;;;;5092339;28;20035;-31
2022/04/21 07:36:05;;;;;;;5.43;3.20;;;13.70;99.90;;;;;;5102139;28;20391;-31
2022/04/21 07:38:31;;;;;;;7.15;3.63;;;13.90;99.90;;;;;;5103220;28;20012;-32
2022/04/21 07:40:57;;;;;;;5.65;2.80;;;14.10;99.50;;;;;;5090963;28;20027;-30
2022/04/21 07:43:22;;;;;;;5.38;3.08;;;14.20;99.10;;;;;;5099460;28;20046;-30
2022/04/21 07:45:51;;;;;;;5.15;2.80;;;14.30;99.20;;;;;;5096988;28;20391;-34
2022/04/21 07:48:17;;;;;;;3.55;2.80;;;14.30;99.40;;;;;;5100369;28;20155;-37
2022/04/21 07:50:43;;;;;;;3.95;2.95;;;14.30;99.10;;;;;;5096075;28;20505;-35
2022/04/21 07:53:15;;;;;;;3.83;3.05;;;14.40;98.70;;;;;;5095554;28;20055;-29
2022/04/21 07:55:50;;;;;;;5.20;2.80;;;14.50;99.00;;;;;;5099200;28;20068;-29
2022/04/21 07:58:15;;;;;;;3.30;2.88;;;14.50;99.00;;;;;;5098310;28;20498;-32
2022/04/21 08:00:41;;;;;;;3.05;2.78;;;14.40;98.70;;;;;;5093001;28;20023;-31
2022/04/21 08:03:07;;;;;;;6.20;3.42;;;14.30;99.30;;;;;;5095656;28;20095;-32
2022/04/21 08:05:33;;;;;;;5.60;3.80;;;14.30;99.50;;;;;;5107068;28;20039;-29
2022/04/21 08:07:59;;;;;;;4.47;3.28;;;14.30;99.00;;;;;;5099374;28;20028;-47
2022/04/21 08:10:28;;;;;;;5.00;2.80;;;14.30;99.20;;;;;;5094721;28;20157;-29
2022/04/21 08:12:56;;;;;;;12.68;3.33;;;14.40;99.20;;;;;;5094916;28;20020;-34
2022/04/21 08:15:27;;;;;;;3.75;3.17;;;14.40;99.10;;;;;;5096219;28;20391;-30
2022/04/21 08:17:54;;;;;;;6.18;3.33;;;14.20;99.40;;;;;;5098639;28;20026;-30
2022/04/21 08:20:21;;;;;;;3.63;3.20;;;14.50;99.20;;;;;;5093730;28;20130;-29
2022/04/21 08:22:46;;;;;;;4.22;3.55;;;14.70;99.10;;;;;;5101036;28;20015;-30
2022/04/21 08:33:25;;;;;;;6.07;3.00;;;15.20;98.20;;;;;;5107108;28;20050;-34
2022/04/21 08:35:51;;;;;;;8.32;3.13;;;15.20;98.00;;;;;;5096533;28;20024;-30
2022/04/21 08:38:17;;;;;;;4.57;2.90;;;15.40;97.40;;;;;;5093778;28;20699;-31
2022/04/21 08:40:51;;;;;;;3.78;3.08;;;15.70;96.80;;;;;;5100521;28;20030;-30
2022/04/21 08:43:17;;;;;;;6.55;3.15;;;15.80;97.00;;;;;;5095866;28;20026;-29
2022/04/21 08:45:44;;;;;;;8.40;2.50;;;16.00;97.00;;;;;;5099509;28;20080;-29
2022/04/21 08:48:17;;;;;;;5.68;2.92;;;16.30;97.10;;;;;;5106586;28;20118;-31
2022/04/21 08:50:46;;;;;;;5.22;2.50;;;16.60;95.90;;;;;;5108307;28;20080;-28
2022/04/21 08:53:16;;;;;;;4.13;2.75;;;16.60;95.60;;;;;;5099364;28;20023;-30
2022/04/21 08:55:44;;;;;;;3.35;2.60;;;16.60;95.40;;;;;;5081811;28;20058;-28
2022/04/21 08:58:11;;;;;;;3.72;2.20;;;16.80;95.30;;;;;;5109013;28;20088;-28
2022/04/21 09:00:37;;;;;;;2.65;2.45;;;16.60;93.80;;;;;;5106156;28;20077;-31
2022/04/21 09:03:05;;;;;;;3.13;2.42;;;16.60;93.60;;;;;;5107852;28;20039;-28
2022/04/21 09:05:31;;;;;;;1.60;1.50;;;16.90;92.80;;;;;;5111536;28;20023;-33
2022/04/21 09:07:58;;;;;;;3.40;2.15;;;17.30;93.00;;;;;;5100511;28;20525;-27
2022/04/21 09:10:25;;;;;;;3.95;1.98;;;17.50;92.20;;;;;;5087111;28;20077;-28
2022/04/21 09:12:58;;;;;;;2.95;2.15;;;17.90;90.50;;;;;;5110658;28;20032;-29
2022/04/21 09:15:29;;;;;;;1.60;1.50;;;18.10;90.70;;;;;;5116087;28;20023;-30
2022/04/21 09:17:57;;;;;;;2.83;1.50;;;18.20;90.40;;;;;;5109589;28;20379;-34
2022/04/21 09:20:26;;;;;;;1.52;1.30;;;18.10;88.80;;;;;;5098744;28;20029;-29
2022/04/21 09:22:58;;;;;;;2.78;1.65;;;18.20;87.20;;;;;;5092939;28;20673;-27
2022/04/21 09:25:32;;;;;;;5.65;2.13;;;18.40;86.90;;;;;;5104968;28;20073;-29
2022/04/21 09:27:58;;;;;;;2.20;1.67;;;18.60;87.40;;;;;;5095138;28;20051;-29
2022/04/21 09:30:25;;;;;;;5.03;1.80;;;18.80;87.40;;;;;;5103553;28;20425;-35
2022/04/21 09:32:53;;;;;;;1.65;1.48;;;19.10;87.20;;;;;;5101981;28;20100;-32
2022/04/21 09:35:20;;;;;;;1.80;1.70;;;19.50;84.40;;;;;;5115383;28;20051;-28
2022/04/21 09:37:50;;;;;;;1.95;1.60;;;19.50;83.40;;;;;;5105692;28;20396;-31
2022/04/21 09:40:20;;;;;;;2.90;1.58;;;18.90;83.90;;;;;;5091562;28;20487;-34
2022/04/21 09:43:12;;;;;;;6.05;1.60;;;19.00;84.90;;;;;;5097771;28;20502;-37
2022/04/21 09:46:11;;;;;;;13.45;1.67;;;19.40;83.90;;;;;;5086002;28;20028;-32
2022/04/21 09:48:31;;;;;;;2.70;1.35;;;19.70;81.40;;;;;;5095774;28;20089;-29
2022/04/21 09:51:11;;;;;;;1.88;1.20;;;20.20;80.50;;;;;;5090379;28;20028;-28
2022/04/21 09:53:53;;;;;;;3.25;2.38;;;20.40;80.50;;;;;;5102080;28;20028;-29
2022/04/21 09:56:39;;;;;;;2.53;1.20;;;20.80;79.00;;;;;;5087622;28;20041;-36
2022/04/21 09:59:08;;;;;;;1.05;0.90;;;21.00;79.30;;;;;;5109048;28;20031;-30
2022/04/21 10:01:37;;;;;;;2.70;0.90;;;21.00;76.10;;;;;;5113497;28;20115;-27
2022/04/21 10:04:06;;;;;;;1.20;0.80;;;21.00;76.00;;;;;;5112544;28;20035;-27
2022/04/21 10:06:32;;;;;;;3.15;0.88;;;20.50;75.30;;;;;;5110450;28;20080;-27
2022/04/21 10:08:58;;;;;;;1.73;0.95;;;20.00;76.40;;;;;;5111855;28;20065;-28
2022/04/21 10:11:24;;;;;;;2.47;1.00;;;19.60;77.90;;;;;;5113581;28;20468;-36
2022/04/21 10:13:57;;;;;;;1.63;1.52;;;19.80;77.60;;;;;;5113755;28;20028;-29
2022/04/21 10:16:24;;;;;;;1.55;1.15;;;20.00;77.90;;;;;;5100497;28;20111;-30
2022/04/21 10:18:52;;;;;;;1.77;1.05;;;20.20;77.50;;;;;;5109053;28;20023;-31
2022/04/21 10:21:48;;;;;;;1.83;1.20;;;20.40;75.60;;;;;;5114442;28;20066;-32
2022/04/21 10:24:21;;;;;;;1.38;1.00;;;20.00;75.70;;;;;;5110133;28;20036;-31
2022/04/21 10:26:46;;;;;;;1.65;0.90;;;20.00;75.80;;;;;;5109381;28;20032;-28
2022/04/21 10:29:17;;;;;;;1.73;1.30;;;20.10;77.50;;;;;;5109398;28;20034;-32
2022/04/21 10:32:05;;;;;;;2.05;1.20;;;20.20;76.60;;;;;;5110700;28;20015;-29
2022/04/21 10:34:36;;;;;;;1.02;1.02;;;20.20;75.80;;;;;;5112543;28;20046;-31
2022/04/21 10:37:09;;;;;;;2.85;1.27;;;20.10;76.80;;;;;;5099799;28;20051;-34
2022/04/21 10:39:35;;;;;;;2.45;1.50;;;20.00;76.90;;;;;;5109667;28;20070;-29
2022/04/21 10:42:14;;;;;;;4.00;1.50;;;19.60;77.40;;;;;;5112708;28;20077;-31
2022/04/21 10:44:43;;;;;;;1.20;1.10;;;19.50;77.10;;;;;;5098778;28;20035;-35
2022/04/21 10:47:28;;;;;;;1.30;1.20;;;19.00;77.60;;;;;;5092750;28;20571;-31
2022/04/21 10:50:13;;;;;;;1.70;1.35;;;19.00;78.30;;;;;;5111800;28;20035;-31
2022/04/21 10:57:57;;;;;;;1.27;1.27;;;19.50;77.20;;;;;;5103687;28;20078;-28
2022/04/21 11:00:23;;;;;;;2.00;1.27;;;19.30;77.60;;;;;;5097130;28;20021;-32
2022/04/21 11:03:01;;;;;;;1.63;0.95;;;19.30;77.70;;;;;;5091577;28;20024;-31
2022/04/21 11:05:31;;;;;;;1.60;1.20;;;19.50;77.40;;;;;;5097690;28;20024;-34
2022/04/21 11:07:58;;;;;;;1.30;1.20;;;19.50;77.20;;;;;;5104262;28;20027;-32
2022/04/21 11:10:36;;;;;;;2.83;1.35;;;19.20;76.80;;;;;;5112162;28;20233;-35
2022/04/21 11:13:03;;;;;;;2.05;1.08;;;19.30;76.90;;;;;;5096434;28;20024;-29
2022/04/21 11:15:44;;;;;;;1.52;1.42;;;19.30;77.70;;;;;;5108898;28;20196;-32
2022/04/21 11:18:15;;;;;;;10.32;2.08;;;19.50;76.70;;;;;;5101218;28;20027;-30
2022/04/21 11:20:43;;;;;;;4.43;1.27;;;19.60;75.50;;;;;;5113571;28;20031;-32
2022/04/21 11:23:10;;;;;;;3.35;1.50;;;19.50;75.30;;;;;;5108556;28;20421;-29
2022/04/21 11:25:36;;;;;;;2.72;1.25;;;19.50;76.50;;;;;;5107610;28;20035;-32
2022/04/21 11:28:02;;;;;;;1.55;1.45;;;19.50;76.60;;;;;;5095678;28;20030;-31
2022/04/21 11:30:30;;;;;;;1.52;1.23;;;19.30;76.80;;;;;;5112465;28;20024;-33
2022/04/21 11:32:56;;;;;;;3.28;1.50;;;19.30;77.20;;;;;;5110269;28;20046;-33
2022/04/21 11:35:22;;;;;;;2.05;1.65;;;19.50;78.50;;;;;;5111487;28;20391;-30
2022/04/21 11:37:57;;;;;;;3.67;1.55;;;19.70;77.20;;;;;;5111086;28;20582;-34
2022/04/21 11:40:37;;;;;;;1.40;1.30;;;19.80;77.80;;;;;;5113644;28;20475;-32
2022/04/21 11:43:25;;;;;;;5.80;1.80;;;19.90;78.40;;;;;;5111486;28;20035;-29
2022/04/21 11:45:59;;;;;;;1.88;1.60;;;19.80;78.70;;;;;;5112401;28;20479;-32
2022/04/21 11:48:39;;;;;;;1.67;1.58;;;19.70;78.20;;;;;;5112419;28;20032;-39
2022/04/21 11:51:06;;;;;;;1.70;1.60;;;19.80;78.50;;;;;;5111991;28;20475;-31
2022/04/21 11:53:36;;;;;;;1.80;1.60;;;19.90;78.10;;;;;;5105952;28;20024;-36
2022/04/21 11:56:03;;;;;;;1.40;1.30;;;19.90;77.00;;;;;;5113468;28;20380;-31
2022/04/21 11:58:34;;;;;;;1.75;1.20;;;20.10;78.50;;;;;;5093500;28;20512;-29
2022/04/21 12:06:56;;;;;;;4.45;1.42;;;20.60;75.70;;;;;;5116075;28;20047;-31
2022/04/21 12:09:26;;;;;;;4.10;1.98;;;20.60;76.00;;;;;;5116941;28;20049;-29
2022/04/21 12:11:57;;;;;;;1.45;1.35;;;20.50;75.60;;;;;;5108380;28;20064;-28
2022/04/21 12:14:24;;;;;;;2.10;1.25;;;20.40;75.90;;;;;;5112785;28;20031;-36
2022/04/21 12:16:55;;;;;;;2.50;1.87;;;20.50;76.80;;;;;;5105600;28;20030;-33
2022/04/21 12:19:44;;;;;;;1.85;1.20;;;20.60;75.60;;;;;;5114010;28;20495;-34
2022/04/21 12:22:13;;;;;;;3.65;1.50;;;20.40;76.90;;;;;;5111608;28;20028;-29
2022/04/21 12:24:50;;;;;;;4.10;1.63;;;20.40;76.80;;;;;;5115772;28;20084;-29
2022/04/21 12:27:19;;;;;;;2.47;1.73;;;20.20;76.80;;;;;;5105075;28;20020;-35
2022/04/21 12:29:57;;;;;;;1.85;1.20;;;20.30;76.50;;;;;;5110577;28;20498;-33
2022/04/21 12:32:28;;;;;;;1.98;1.58;;;20.50;77.60;;;;;;5105101;28;20043;-31
2022/04/21 12:34:56;;;;;;;3.13;1.20;;;20.60;75.60;;;;;;5091858;28;20031;-44
2022/04/21 12:37:28;;;;;;;1.83;1.30;;;20.70;76.00;;;;;;5095840;28;20027;-30
2022/04/21 12:39:55;;;;;;;1.45;1.35;;;20.60;75.50;;;;;;5095950;28;20028;-30
2022/04/21 12:42:21;;;;;;;2.70;1.38;;;20.70;74.70;;;;;;5098426;28;20487;-29
2022/04/21 12:44:48;;;;;;;6.15;1.20;;;20.90;75.10;;;;;;5106337;28;20028;-30
2022/04/21 12:47:15;;;;;;;;;;;21.00;75.30;;;;;;5096433;28;20429;-35
2022/04/21 12:49:58;;;;;;;1.60;1.07;;;20.80;75.00;;;;;;5094820;28;19931;-33
2022/04/21 12:52:27;;;;;;;2.97;0.95;;;20.80;74.10;;;;;;5116465;28;20341;-32
2022/04/21 12:54:53;;;;;;;1.45;1.20;;;21.00;74.10;;;;;;5101597;28;20028;-29
2022/04/21 12:57:18;;;;;;;1.35;0.95;;;20.90;72.40;;;;;;5116188;28;20531;-32
2022/04/21 12:59:47;;;;;;;1.73;1.60;;;20.70;73.10;;;;;;5113585;28;20028;-28
2022/04/21 13:02:15;;;;;;;2.45;1.27;;;20.60;73.00;;;;;;5116035;28;20038;-32
2022/04/21 13:04:41;;;;;;;3.90;1.10;;;20.60;73.80;;;;;;5115726;28;20044;-31
2022/04/21 13:07:09;;;;;;;4.93;1.30;;;20.70;73.80;;;;;;5107361;28;20128;-28
2022/04/21 13:09:34;;;;;;;2.80;1.17;;;21.00;73.20;;;;;;5111272;28;20020;-29
2022/04/21 13:12:00;;;;;;;0.98;0.95;;;21.30;72.10;;;;;;5115928;28;20103;-30
2022/04/21 13:14:26;;;;;;;1.95;0.85;;;21.30;71.30;;;;;;5115291;28;20077;-29
2022/04/21 13:16:51;;;;;;;0.73;0.70;;;21.20;71.90;;;;;;5113920;28;20061;-35
2022/04/21 13:19:17;;;;;;;2.60;1.10;;;21.50;71.10;;;;;;5113740;28;20475;-30
2022/04/21 13:21:57;;;;;;;1.15;0.98;;;21.40;71.30;;;;;;5094672;28;20032;-29
2022/04/21 13:24:27;;;;;;;1.38;0.85;;;21.30;70.20;;;;;;5095495;28;20488;-34
2022/04/21 13:26:53;;;;;;;1.27;0.93;;;20.80;70.60;;;;;;5093720;28;20066;-45
2022/04/21 13:29:20;;;;;;;6.43;1.48;;;20.80;71.60;;;;;;5115557;28;20019;-35
2022/04/21 13:34:30;;;;;;;2.33;1.25;;;21.20;71.10;;;;;;5115289;28;20039;-33
2022/04/21 13:36:56;;;;;;;1.02;0.98;;;21.40;71.20;;;;;;5112965;28;20479;-30
2022/04/21 13:39:22;;;;;;;2.83;1.27;;;21.60;70.10;;;;;;5094634;28;20090;-30
2022/04/21 13:41:48;;;;;;;1.20;1.00;;;21.70;70.70;;;;;;5094684;28;20024;-31
2022/04/21 13:44:14;;;;;;;4.32;1.20;;;21.70;70.60;;;;;;5094580;28;20027;-31